Terminal Aerodrome Forecast
Issued by NWS Wilmington, NC

Home | Current Version | Previous Version | Text Only | Print | Product List | Glossary On
Versions: 1 2 3 4 5 6 7 8 9 10 11 12 13 14 15 16 17 18 19 20 21 22 23 24 25
759
FTUS42 KILM 011135
TAFILM
TAF
KILM 011135Z 0112/0212 10003KT 6SM BR FEW004 SCT020 BKN130
      TEMPO 0112/0113 5SM BR
     FM011330 16005KT P6SM SCT025 SCT050 BKN130
     FM011500 18012KT P6SM SCT025 SCT090 SCT130
     FM020000 20008KT P6SM SCT060 SCT100 BKN250=

USA.gov is the U.S. government's official web portal to all federal, state and local government web resources and services.